sensor_id;sensor_type;location;lat;lon;timestamp;P1;durP1;ratioP1;P2;durP2;ratioP2
74245;SDS011;62601;51.044;13.788;2023-04-15T00:01:15;3.10;;;2.90;;
74245;SDS011;62601;51.044;13.788;2023-04-15T00:03:36;4.05;;;3.75;;
74245;SDS011;62601;51.044;13.788;2023-04-15T00:05:57;5.68;;;3.65;;
74245;SDS011;62601;51.044;13.788;2023-04-15T00:08:17;3.70;;;3.40;;
74245;SDS011;62601;51.044;13.788;2023-04-15T00:10:38;3.25;;;2.95;;
74245;SDS011;62601;51.044;13.788;2023-04-15T00:13:00;3.42;;;3.13;;
74245;SDS011;62601;51.044;13.788;2023-04-15T00:15:21;3.10;;;2.80;;
74245;SDS011;62601;51.044;13.788;2023-04-15T00:17:42;3.35;;;3.05;;
74245;SDS011;62601;51.044;13.788;2023-04-15T00:20:04;3.20;;;2.67;;
74245;SDS011;62601;51.044;13.788;2023-04-15T00:22:29;2.55;;;2.35;;
74245;SDS011;62601;51.044;13.788;2023-04-15T00:24:51;3.03;;;2.80;;
74245;SDS011;62601;51.044;13.788;2023-04-15T00:27:12;2.70;;;2.50;;
74245;SDS011;62601;51.044;13.788;2023-04-15T00:29:34;2.58;;;2.38;;
74245;SDS011;62601;51.044;13.788;2023-04-15T00:31:54;2.53;;;2.33;;
74245;SDS011;62601;51.044;13.788;2023-04-15T00:34:15;2.60;;;2.40;;
74245;SDS011;62601;51.044;13.788;2023-04-15T00:36:37;2.30;;;2.10;;
74245;SDS011;62601;51.044;13.788;2023-04-15T00:38:58;2.33;;;2.13;;
74245;SDS011;62601;51.044;13.788;2023-04-15T00:41:20;2.28;;;2.10;;
74245;SDS011;62601;51.044;13.788;2023-04-15T00:43:40;2.10;;;1.90;;
74245;SDS011;62601;51.044;13.788;2023-04-15T00:46:03;2.65;;;2.45;;
74245;SDS011;62601;51.044;13.788;2023-04-15T00:48:24;2.65;;;2.45;;
74245;SDS011;62601;51.044;13.788;2023-04-15T00:50:46;2.47;;;2.20;;
74245;SDS011;62601;51.044;13.788;2023-04-15T00:53:06;2.63;;;2.42;;
74245;SDS011;62601;51.044;13.788;2023-04-15T00:55:28;2.30;;;2.10;;
74245;SDS011;62601;51.044;13.788;2023-04-15T00:57:48;2.20;;;2.00;;
74245;SDS011;62601;51.044;13.788;2023-04-15T01:00:10;2.65;;;2.42;;
74245;SDS011;62601;51.044;13.788;2023-04-15T01:02:33;2.28;;;2.10;;
74245;SDS011;62601;51.044;13.788;2023-04-15T01:04:55;2.47;;;2.28;;
74245;SDS011;62601;51.044;13.788;2023-04-15T01:07:15;2.70;;;2.50;;
74245;SDS011;62601;51.044;13.788;2023-04-15T01:09:35;2.42;;;2.22;;
74245;SDS011;62601;51.044;13.788;2023-04-15T01:11:56;2.45;;;2.25;;
74245;SDS011;62601;51.044;13.788;2023-04-15T01:14:16;2.60;;;2.40;;
74245;SDS011;62601;51.044;13.788;2023-04-15T01:16:38;2.50;;;2.30;;
74245;SDS011;62601;51.044;13.788;2023-04-15T01:18:58;2.60;;;2.40;;
74245;SDS011;62601;51.044;13.788;2023-04-15T01:21:18;2.20;;;2.10;;
74245;SDS011;62601;51.044;13.788;2023-04-15T01:23:40;2.50;;;2.30;;
74245;SDS011;62601;51.044;13.788;2023-04-15T01:26:01;2.60;;;2.40;;
74245;SDS011;62601;51.044;13.788;2023-04-15T01:28:21;2.60;;;2.40;;
74245;SDS011;62601;51.044;13.788;2023-04-15T01:30:43;2.70;;;2.50;;
74245;SDS011;62601;51.044;13.788;2023-04-15T01:33:04;2.72;;;2.53;;
74245;SDS011;62601;51.044;13.788;2023-04-15T01:35:24;2.72;;;2.53;;
74245;SDS011;62601;51.044;13.788;2023-04-15T01:37:44;2.67;;;2.47;;
74245;SDS011;62601;51.044;13.788;2023-04-15T01:40:06;3.05;;;2.80;;
74245;SDS011;62601;51.044;13.788;2023-04-15T01:42:28;2.65;;;2.45;;
74245;SDS011;62601;51.044;13.788;2023-04-15T01:44:48;3.72;;;2.78;;
74245;SDS011;62601;51.044;13.788;2023-04-15T01:47:09;2.88;;;2.65;;
74245;SDS011;62601;51.044;13.788;2023-04-15T01:49:31;2.53;;;2.33;;
74245;SDS011;62601;51.044;13.788;2023-04-15T01:51:51;3.60;;;2.90;;
74245;SDS011;62601;51.044;13.788;2023-04-15T01:54:12;3.00;;;2.80;;
74245;SDS011;62601;51.044;13.788;2023-04-15T01:56:32;5.22;;;2.70;;
74245;SDS011;62601;51.044;13.788;2023-04-15T01:58:53;3.65;;;3.35;;
74245;SDS011;62601;51.044;13.788;2023-04-15T02:01:14;2.90;;;2.63;;
74245;SDS011;62601;51.044;13.788;2023-04-15T02:03:35;3.03;;;2.83;;
74245;SDS011;62601;51.044;13.788;2023-04-15T02:05:57;6.85;;;2.70;;
74245;SDS011;62601;51.044;13.788;2023-04-15T02:08:17;3.13;;;2.90;;
74245;SDS011;62601;51.044;13.788;2023-04-15T02:10:38;3.33;;;3.13;;
74245;SDS011;62601;51.044;13.788;2023-04-15T02:12:58;3.17;;;2.90;;
74245;SDS011;62601;51.044;13.788;2023-04-15T02:15:18;3.40;;;3.20;;
74245;SDS011;62601;51.044;13.788;2023-04-15T02:17:39;2.75;;;2.53;;
74245;SDS011;62601;51.044;13.788;2023-04-15T02:20:00;3.50;;;3.20;;
74245;SDS011;62601;51.044;13.788;2023-04-15T02:22:21;3.15;;;2.85;;
74245;SDS011;62601;51.044;13.788;2023-04-15T02:24:43;3.30;;;3.10;;
74245;SDS011;62601;51.044;13.788;2023-04-15T02:27:03;3.97;;;3.30;;
74245;SDS011;62601;51.044;13.788;2023-04-15T02:29:23;3.58;;;3.28;;
74245;SDS011;62601;51.044;13.788;2023-04-15T02:31:43;3.88;;;3.53;;
74245;SDS011;62601;51.044;13.788;2023-04-15T02:34:04;3.40;;;3.10;;
74245;SDS011;62601;51.044;13.788;2023-04-15T02:36:26;3.55;;;3.25;;
74245;SDS011;62601;51.044;13.788;2023-04-15T02:38:46;6.43;;;3.42;;
74245;SDS011;62601;51.044;13.788;2023-04-15T02:41:06;3.35;;;3.05;;
74245;SDS011;62601;51.044;13.788;2023-04-15T02:43:27;3.65;;;2.83;;
74245;SDS011;62601;51.044;13.788;2023-04-15T02:45:49;3.90;;;3.53;;
74245;SDS011;62601;51.044;13.788;2023-04-15T02:48:10;3.38;;;3.08;;
74245;SDS011;62601;51.044;13.788;2023-04-15T02:50:31;3.33;;;3.03;;
74245;SDS011;62601;51.044;13.788;2023-04-15T02:52:53;4.00;;;3.60;;
74245;SDS011;62601;51.044;13.788;2023-04-15T02:55:13;3.80;;;3.50;;
74245;SDS011;62601;51.044;13.788;2023-04-15T02:57:33;3.25;;;2.95;;
74245;SDS011;62601;51.044;13.788;2023-04-15T02:59:54;3.35;;;3.05;;
74245;SDS011;62601;51.044;13.788;2023-04-15T03:02:15;3.55;;;3.13;;
74245;SDS011;62601;51.044;13.788;2023-04-15T03:04:36;3.70;;;3.38;;
74245;SDS011;62601;51.044;13.788;2023-04-15T03:06:57;4.00;;;3.70;;
74245;SDS011;62601;51.044;13.788;2023-04-15T03:09:17;3.83;;;3.42;;
74245;SDS011;62601;51.044;13.788;2023-04-15T03:11:39;4.10;;;3.70;;
74245;SDS011;62601;51.044;13.788;2023-04-15T03:13:59;3.95;;;3.65;;
74245;SDS011;62601;51.044;13.788;2023-04-15T03:16:20;3.97;;;3.67;;
74245;SDS011;62601;51.044;13.788;2023-04-15T03:18:42;3.67;;;3.15;;
74245;SDS011;62601;51.044;13.788;2023-04-15T03:21:04;3.05;;;2.85;;
74245;SDS011;62601;51.044;13.788;2023-04-15T03:23:25;5.07;;;3.55;;
74245;SDS011;62601;51.044;13.788;2023-04-15T03:25:46;2.90;;;2.70;;
74245;SDS011;62601;51.044;13.788;2023-04-15T03:28:08;3.83;;;3.53;;
74245;SDS011;62601;51.044;13.788;2023-04-15T03:30:29;3.80;;;3.50;;
74245;SDS011;62601;51.044;13.788;2023-04-15T03:32:51;4.22;;;3.83;;
74245;SDS011;62601;51.044;13.788;2023-04-15T03:35:12;3.53;;;3.22;;
74245;SDS011;62601;51.044;13.788;2023-04-15T03:37:33;3.35;;;3.10;;
74245;SDS011;62601;51.044;13.788;2023-04-15T03:39:55;3.63;;;3.33;;
74245;SDS011;62601;51.044;13.788;2023-04-15T03:42:16;3.85;;;3.55;;
74245;SDS011;62601;51.044;13.788;2023-04-15T03:44:37;3.80;;;3.50;;
74245;SDS011;62601;51.044;13.788;2023-04-15T03:46:58;3.80;;;3.50;;
74245;SDS011;62601;51.044;13.788;2023-04-15T03:49:20;4.13;;;3.72;;
74245;SDS011;62601;51.044;13.788;2023-04-15T03:51:41;4.35;;;3.95;;
74245;SDS011;62601;51.044;13.788;2023-04-15T03:54:01;4.47;;;3.72;;
74245;SDS011;62601;51.044;13.788;2023-04-15T03:56:23;3.88;;;3.58;;
74245;SDS011;62601;51.044;13.788;2023-04-15T03:58:44;3.80;;;3.50;;
74245;SDS011;62601;51.044;13.788;2023-04-15T04:01:04;4.35;;;3.88;;
74245;SDS011;62601;51.044;13.788;2023-04-15T04:03:25;3.97;;;3.60;;
74245;SDS011;62601;51.044;13.788;2023-04-15T04:05:45;3.63;;;3.33;;
74245;SDS011;62601;51.044;13.788;2023-04-15T04:08:05;5.72;;;5.00;;
74245;SDS011;62601;51.044;13.788;2023-04-15T04:10:27;5.32;;;4.82;;
74245;SDS011;62601;51.044;13.788;2023-04-15T04:12:48;4.03;;;3.72;;
74245;SDS011;62601;51.044;13.788;2023-04-15T04:15:10;4.20;;;3.90;;
74245;SDS011;62601;51.044;13.788;2023-04-15T04:17:31;5.20;;;4.20;;
74245;SDS011;62601;51.044;13.788;2023-04-15T04:19:51;4.10;;;3.65;;
74245;SDS011;62601;51.044;13.788;2023-04-15T04:22:13;3.97;;;3.58;;
74245;SDS011;62601;51.044;13.788;2023-04-15T04:24:34;4.75;;;4.25;;
74245;SDS011;62601;51.044;13.788;2023-04-15T04:26:55;4.28;;;3.97;;
74245;SDS011;62601;51.044;13.788;2023-04-15T04:29:17;4.82;;;4.40;;
74245;SDS011;62601;51.044;13.788;2023-04-15T04:31:38;4.05;;;3.75;;
74245;SDS011;62601;51.044;13.788;2023-04-15T04:33:59;5.20;;;4.70;;
74245;SDS011;62601;51.044;13.788;2023-04-15T04:36:21;4.93;;;4.53;;
74245;SDS011;62601;51.044;13.788;2023-04-15T04:38:42;5.05;;;4.65;;
74245;SDS011;62601;51.044;13.788;2023-04-15T04:41:04;4.80;;;4.40;;
74245;SDS011;62601;51.044;13.788;2023-04-15T04:43:25;4.15;;;3.75;;
74245;SDS011;62601;51.044;13.788;2023-04-15T04:45:45;5.00;;;4.50;;
74245;SDS011;62601;51.044;13.788;2023-04-15T04:48:07;4.60;;;4.22;;
74245;SDS011;62601;51.044;13.788;2023-04-15T04:50:28;4.75;;;4.35;;
74245;SDS011;62601;51.044;13.788;2023-04-15T04:52:50;4.10;;;3.75;;
74245;SDS011;62601;51.044;13.788;2023-04-15T04:55:11;4.05;;;3.75;;
74245;SDS011;62601;51.044;13.788;2023-04-15T04:57:32;4.10;;;3.80;;
74245;SDS011;62601;51.044;13.788;2023-04-15T04:59:53;4.28;;;3.83;;
74245;SDS011;62601;51.044;13.788;2023-04-15T05:02:13;4.40;;;4.00;;
74245;SDS011;62601;51.044;13.788;2023-04-15T05:04:34;4.50;;;4.10;;
74245;SDS011;62601;51.044;13.788;2023-04-15T05:06:56;4.13;;;3.72;;
74245;SDS011;62601;51.044;13.788;2023-04-15T05:09:16;4.35;;;3.60;;
74245;SDS011;62601;51.044;13.788;2023-04-15T05:11:38;4.35;;;3.95;;
74245;SDS011;62601;51.044;13.788;2023-04-15T05:13:59;4.50;;;4.10;;
74245;SDS011;62601;51.044;13.788;2023-04-15T05:16:19;5.50;;;4.90;;
74245;SDS011;62601;51.044;13.788;2023-04-15T05:18:40;4.80;;;4.35;;
74245;SDS011;62601;51.044;13.788;2023-04-15T05:21:02;5.70;;;4.15;;
74245;SDS011;62601;51.044;13.788;2023-04-15T05:23:23;6.95;;;3.90;;
74245;SDS011;62601;51.044;13.788;2023-04-15T05:25:44;4.20;;;3.63;;
74245;SDS011;62601;51.044;13.788;2023-04-15T05:28:05;3.65;;;3.35;;
74245;SDS011;62601;51.044;13.788;2023-04-15T05:30:25;4.40;;;3.88;;
74245;SDS011;62601;51.044;13.788;2023-04-15T05:32:47;4.35;;;3.95;;
74245;SDS011;62601;51.044;13.788;2023-04-15T05:35:08;3.92;;;3.30;;
74245;SDS011;62601;51.044;13.788;2023-04-15T05:37:29;3.88;;;3.22;;
74245;SDS011;62601;51.044;13.788;2023-04-15T05:39:51;3.95;;;3.55;;
74245;SDS011;62601;51.044;13.788;2023-04-15T05:42:12;4.15;;;3.70;;
74245;SDS011;62601;51.044;13.788;2023-04-15T05:44:32;3.97;;;3.65;;
74245;SDS011;62601;51.044;13.788;2023-04-15T05:46:53;3.83;;;3.45;;
74245;SDS011;62601;51.044;13.788;2023-04-15T05:49:14;4.47;;;3.80;;
74245;SDS011;62601;51.044;13.788;2023-04-15T05:51:34;3.55;;;3.25;;
74245;SDS011;62601;51.044;13.788;2023-04-15T05:53:55;3.17;;;2.88;;
74245;SDS011;62601;51.044;13.788;2023-04-15T05:56:16;3.00;;;2.70;;
74245;SDS011;62601;51.044;13.788;2023-04-15T05:58:38;8.30;;;4.68;;
74245;SDS011;62601;51.044;13.788;2023-04-15T06:00:58;2.80;;;2.55;;
74245;SDS011;62601;51.044;13.788;2023-04-15T06:03:19;3.33;;;3.03;;
74245;SDS011;62601;51.044;13.788;2023-04-15T06:05:40;2.90;;;2.47;;
74245;SDS011;62601;51.044;13.788;2023-04-15T06:08:01;3.05;;;2.65;;
74245;SDS011;62601;51.044;13.788;2023-04-15T06:10:22;2.72;;;2.45;;
74245;SDS011;62601;51.044;13.788;2023-04-15T06:12:43;3.13;;;2.70;;
74245;SDS011;62601;51.044;13.788;2023-04-15T06:15:05;4.65;;;2.60;;
74245;SDS011;62601;51.044;13.788;2023-04-15T06:17:25;3.50;;;2.90;;
74245;SDS011;62601;51.044;13.788;2023-04-15T06:19:46;3.33;;;2.67;;
74245;SDS011;62601;51.044;13.788;2023-04-15T06:22:08;2.65;;;2.45;;
74245;SDS011;62601;51.044;13.788;2023-04-15T06:24:28;3.95;;;2.15;;
74245;SDS011;62601;51.044;13.788;2023-04-15T06:26:48;3.15;;;2.00;;
74245;SDS011;62601;51.044;13.788;2023-04-15T06:29:10;2.97;;;1.75;;
74245;SDS011;62601;51.044;13.788;2023-04-15T06:31:31;2.67;;;1.50;;
74245;SDS011;62601;51.044;13.788;2023-04-15T06:33:51;3.17;;;1.73;;
74245;SDS011;62601;51.044;13.788;2023-04-15T06:36:13;2.35;;;2.15;;
74245;SDS011;62601;51.044;13.788;2023-04-15T06:38:34;1.83;;;1.60;;
74245;SDS011;62601;51.044;13.788;2023-04-15T06:40:54;3.05;;;1.80;;
74245;SDS011;62601;51.044;13.788;2023-04-15T06:43:16;1.65;;;1.45;;
74245;SDS011;62601;51.044;13.788;2023-04-15T06:45:37;2.30;;;1.85;;
74245;SDS011;62601;51.044;13.788;2023-04-15T06:47:57;2.95;;;1.58;;
74245;SDS011;62601;51.044;13.788;2023-04-15T06:50:21;1.95;;;1.45;;
74245;SDS011;62601;51.044;13.788;2023-04-15T06:52:43;4.70;;;1.88;;
74245;SDS011;62601;51.044;13.788;2023-04-15T06:55:03;3.53;;;1.98;;
74245;SDS011;62601;51.044;13.788;2023-04-15T06:57:24;2.10;;;1.58;;
74245;SDS011;62601;51.044;13.788;2023-04-15T06:59:46;1.20;;;1.10;;
74245;SDS011;62601;51.044;13.788;2023-04-15T07:02:07;1.50;;;1.10;;
74245;SDS011;62601;51.044;13.788;2023-04-15T07:04:31;1.30;;;0.90;;
74245;SDS011;62601;51.044;13.788;2023-04-15T07:06:53;2.28;;;1.65;;
74245;SDS011;62601;51.044;13.788;2023-04-15T07:09:13;2.25;;;1.40;;
74245;SDS011;62601;51.044;13.788;2023-04-15T07:11:34;2.03;;;1.60;;
74245;SDS011;62601;51.044;13.788;2023-04-15T07:13:54;5.50;;;1.15;;
74245;SDS011;62601;51.044;13.788;2023-04-15T07:16:16;2.08;;;1.10;;
74245;SDS011;62601;51.044;13.788;2023-04-15T07:18:36;2.00;;;1.40;;
74245;SDS011;62601;51.044;13.788;2023-04-15T07:20:56;1.55;;;1.20;;
74245;SDS011;62601;51.044;13.788;2023-04-15T07:23:17;1.60;;;1.40;;
74245;SDS011;62601;51.044;13.788;2023-04-15T07:25:37;2.30;;;1.50;;
74245;SDS011;62601;51.044;13.788;2023-04-15T07:27:57;1.50;;;1.40;;
74245;SDS011;62601;51.044;13.788;2023-04-15T07:30:17;1.95;;;1.75;;
74245;SDS011;62601;51.044;13.788;2023-04-15T07:32:38;1.80;;;1.50;;
74245;SDS011;62601;51.044;13.788;2023-04-15T07:35:00;1.98;;;1.02;;
74245;SDS011;62601;51.044;13.788;2023-04-15T07:37:21;1.60;;;1.50;;
74245;SDS011;62601;51.044;13.788;2023-04-15T07:39:41;1.55;;;0.95;;
74245;SDS011;62601;51.044;13.788;2023-04-15T07:42:03;1.15;;;0.90;;
74245;SDS011;62601;51.044;13.788;2023-04-15T07:44:23;1.00;;;0.88;;
74245;SDS011;62601;51.044;13.788;2023-04-15T07:46:44;1.73;;;0.88;;
74245;SDS011;62601;51.044;13.788;2023-04-15T07:49:05;1.50;;;0.93;;
74245;SDS011;62601;51.044;13.788;2023-04-15T07:51:26;1.00;;;0.90;;
74245;SDS011;62601;51.044;13.788;2023-04-15T07:53:46;0.98;;;0.88;;
74245;SDS011;62601;51.044;13.788;2023-04-15T07:56:08;0.68;;;0.60;;
74245;SDS011;62601;51.044;13.788;2023-04-15T07:58:29;1.45;;;1.00;;
74245;SDS011;62601;51.044;13.788;2023-04-15T08:00:49;1.52;;;1.05;;
74245;SDS011;62601;51.044;13.788;2023-04-15T08:03:11;1.50;;;1.25;;
74245;SDS011;62601;51.044;13.788;2023-04-15T08:05:32;1.10;;;1.00;;
74245;SDS011;62601;51.044;13.788;2023-04-15T08:07:52;1.10;;;1.00;;
74245;SDS011;62601;51.044;13.788;2023-04-15T08:10:13;2.20;;;1.50;;
74245;SDS011;62601;51.044;13.788;2023-04-15T08:12:35;1.55;;;1.20;;
74245;SDS011;62601;51.044;13.788;2023-04-15T08:14:55;1.38;;;1.27;;
74245;SDS011;62601;51.044;13.788;2023-04-15T08:17:15;1.30;;;1.20;;
74245;SDS011;62601;51.044;13.788;2023-04-15T08:19:36;2.13;;;1.60;;
74245;SDS011;62601;51.044;13.788;2023-04-15T08:21:58;1.80;;;1.50;;
74245;SDS011;62601;51.044;13.788;2023-04-15T08:24:19;2.85;;;1.70;;
74245;SDS011;62601;51.044;13.788;2023-04-15T08:26:40;2.42;;;1.30;;
74245;SDS011;62601;51.044;13.788;2023-04-15T08:29:02;1.60;;;1.38;;
74245;SDS011;62601;51.044;13.788;2023-04-15T08:31:25;1.75;;;1.40;;
74245;SDS011;62601;51.044;13.788;2023-04-15T08:33:46;2.00;;;1.65;;
74245;SDS011;62601;51.044;13.788;2023-04-15T08:36:10;2.10;;;1.80;;
74245;SDS011;62601;51.044;13.788;2023-04-15T08:38:32;1.40;;;1.30;;
74245;SDS011;62601;51.044;13.788;2023-04-15T08:40:57;1.90;;;1.70;;
74245;SDS011;62601;51.044;13.788;2023-04-15T08:43:20;2.15;;;1.50;;
74245;SDS011;62601;51.044;13.788;2023-04-15T08:45:40;1.55;;;1.45;;
74245;SDS011;62601;51.044;13.788;2023-04-15T08:48:02;2.13;;;1.90;;
74245;SDS011;62601;51.044;13.788;2023-04-15T08:50:25;3.35;;;2.15;;
74245;SDS011;62601;51.044;13.788;2023-04-15T08:52:47;3.85;;;3.15;;
74245;SDS011;62601;51.044;13.788;2023-04-15T08:55:08;4.28;;;3.92;;
74245;SDS011;62601;51.044;13.788;2023-04-15T08:57:29;3.72;;;3.42;;
74245;SDS011;62601;51.044;13.788;2023-04-15T08:59:51;4.07;;;3.67;;
74245;SDS011;62601;51.044;13.788;2023-04-15T09:02:12;5.40;;;3.15;;
74245;SDS011;62601;51.044;13.788;2023-04-15T09:04:34;3.17;;;2.97;;
74245;SDS011;62601;51.044;13.788;2023-04-15T09:06:54;2.70;;;2.50;;
74245;SDS011;62601;51.044;13.788;2023-04-15T09:09:14;4.53;;;3.75;;
74245;SDS011;62601;51.044;13.788;2023-04-15T09:11:34;4.30;;;3.90;;
74245;SDS011;62601;51.044;13.788;2023-04-15T09:13:54;3.80;;;3.20;;
74245;SDS011;62601;51.044;13.788;2023-04-15T09:16:16;4.20;;;3.80;;
74245;SDS011;62601;51.044;13.788;2023-04-15T09:18:37;4.20;;;3.90;;
74245;SDS011;62601;51.044;13.788;2023-04-15T09:21:05;4.22;;;3.90;;
74245;SDS011;62601;51.044;13.788;2023-04-15T09:23:25;4.40;;;4.00;;
74245;SDS011;62601;51.044;13.788;2023-04-15T09:25:47;4.28;;;3.97;;
74245;SDS011;62601;51.044;13.788;2023-04-15T09:28:09;3.80;;;3.50;;
74245;SDS011;62601;51.044;13.788;2023-04-15T09:30:29;4.40;;;4.00;;
74245;SDS011;62601;51.044;13.788;2023-04-15T09:32:56;5.88;;;4.75;;
74245;SDS011;62601;51.044;13.788;2023-04-15T09:35:26;4.72;;;4.32;;
74245;SDS011;62601;51.044;13.788;2023-04-15T09:37:48;3.97;;;3.75;;
74245;SDS011;62601;51.044;13.788;2023-04-15T09:40:10;5.25;;;4.20;;
74245;SDS011;62601;51.044;13.788;2023-04-15T09:42:30;5.07;;;4.68;;
74245;SDS011;62601;51.044;13.788;2023-04-15T09:44:52;4.50;;;4.10;;
74245;SDS011;62601;51.044;13.788;2023-04-15T09:47:28;5.20;;;4.00;;
74245;SDS011;62601;51.044;13.788;2023-04-15T09:49:56;4.03;;;3.60;;
74245;SDS011;62601;51.044;13.788;2023-04-15T09:52:18;5.38;;;4.10;;
74245;SDS011;62601;51.044;13.788;2023-04-15T09:54:39;4.28;;;3.97;;
74245;SDS011;62601;51.044;13.788;2023-04-15T09:57:09;4.47;;;4.07;;
74245;SDS011;62601;51.044;13.788;2023-04-15T09:59:29;3.80;;;3.47;;
74245;SDS011;62601;51.044;13.788;2023-04-15T10:01:51;4.40;;;4.00;;
74245;SDS011;62601;51.044;13.788;2023-04-15T10:04:11;5.57;;;4.38;;
74245;SDS011;62601;51.044;13.788;2023-04-15T10:06:32;4.45;;;3.90;;
74245;SDS011;62601;51.044;13.788;2023-04-15T10:08:54;4.40;;;4.00;;
74245;SDS011;62601;51.044;13.788;2023-04-15T10:11:16;4.93;;;4.43;;
74245;SDS011;62601;51.044;13.788;2023-04-15T10:13:40;4.68;;;4.28;;
74245;SDS011;62601;51.044;13.788;2023-04-15T10:16:18;4.00;;;3.60;;
74245;SDS011;62601;51.044;13.788;2023-04-15T10:18:44;4.25;;;3.95;;
74245;SDS011;62601;51.044;13.788;2023-04-15T10:21:04;4.60;;;4.25;;
74245;SDS011;62601;51.044;13.788;2023-04-15T10:23:25;4.03;;;3.67;;
74245;SDS011;62601;51.044;13.788;2023-04-15T10:25:50;4.07;;;3.78;;
74245;SDS011;62601;51.044;13.788;2023-04-15T10:28:11;4.88;;;4.40;;
74245;SDS011;62601;51.044;13.788;2023-04-15T10:30:33;5.50;;;5.00;;
74245;SDS011;62601;51.044;13.788;2023-04-15T10:32:53;4.57;;;4.18;;
74245;SDS011;62601;51.044;13.788;2023-04-15T10:35:17;4.68;;;4.18;;
74245;SDS011;62601;51.044;13.788;2023-04-15T10:37:37;5.13;;;4.65;;
74245;SDS011;62601;51.044;13.788;2023-04-15T10:39:58;5.13;;;4.63;;
74245;SDS011;62601;51.044;13.788;2023-04-15T10:42:20;5.55;;;5.13;;
74245;SDS011;62601;51.044;13.788;2023-04-15T10:44:42;5.78;;;5.28;;
74245;SDS011;62601;51.044;13.788;2023-04-15T10:47:22;5.55;;;5.00;;
74245;SDS011;62601;51.044;13.788;2023-04-15T10:49:43;6.25;;;5.15;;
74245;SDS011;62601;51.044;13.788;2023-04-15T10:52:05;5.50;;;5.05;;
74245;SDS011;62601;51.044;13.788;2023-04-15T10:54:31;5.50;;;5.10;;
74245;SDS011;62601;51.044;13.788;2023-04-15T10:56:52;4.97;;;4.18;;
74245;SDS011;62601;51.044;13.788;2023-04-15T10:59:28;3.92;;;3.63;;
74245;SDS011;62601;51.044;13.788;2023-04-15T11:01:55;4.50;;;4.20;;
74245;SDS011;62601;51.044;13.788;2023-04-15T11:04:34;5.00;;;4.47;;
74245;SDS011;62601;51.044;13.788;2023-04-15T11:07:06;5.30;;;4.63;;
74245;SDS011;62601;51.044;13.788;2023-04-15T11:09:30;4.70;;;4.30;;
74245;SDS011;62601;51.044;13.788;2023-04-15T11:12:06;4.20;;;3.90;;
74245;SDS011;62601;51.044;13.788;2023-04-15T11:14:27;4.22;;;3.92;;
74245;SDS011;62601;51.044;13.788;2023-04-15T11:16:48;3.90;;;3.60;;
74245;SDS011;62601;51.044;13.788;2023-04-15T11:19:09;4.43;;;4.00;;
74245;SDS011;62601;51.044;13.788;2023-04-15T11:21:29;3.40;;;3.03;;
74245;SDS011;62601;51.044;13.788;2023-04-15T11:23:49;3.30;;;3.10;;
74245;SDS011;62601;51.044;13.788;2023-04-15T11:26:09;3.22;;;3.03;;
74245;SDS011;62601;51.044;13.788;2023-04-15T11:28:31;3.70;;;3.40;;
74245;SDS011;62601;51.044;13.788;2023-04-15T11:30:52;3.80;;;3.20;;
74245;SDS011;62601;51.044;13.788;2023-04-15T11:33:13;6.35;;;3.60;;
74245;SDS011;62601;51.044;13.788;2023-04-15T11:35:33;3.45;;;3.15;;
74245;SDS011;62601;51.044;13.788;2023-04-15T11:37:55;2.92;;;2.72;;
74245;SDS011;62601;51.044;13.788;2023-04-15T11:40:21;2.35;;;2.15;;
74245;SDS011;62601;51.044;13.788;2023-04-15T11:42:43;3.00;;;2.80;;
74245;SDS011;62601;51.044;13.788;2023-04-15T11:45:14;2.45;;;2.25;;
74245;SDS011;62601;51.044;13.788;2023-04-15T11:47:36;2.83;;;2.63;;
74245;SDS011;62601;51.044;13.788;2023-04-15T11:49:56;2.70;;;2.50;;
74245;SDS011;62601;51.044;13.788;2023-04-15T11:52:17;2.55;;;2.35;;
74245;SDS011;62601;51.044;13.788;2023-04-15T11:54:38;3.95;;;2.33;;
74245;SDS011;62601;51.044;13.788;2023-04-15T11:56:58;2.35;;;2.17;;
74245;SDS011;62601;51.044;13.788;2023-04-15T11:59:19;2.42;;;2.28;;
74245;SDS011;62601;51.044;13.788;2023-04-15T12:01:39;2.47;;;2.28;;
74245;SDS011;62601;51.044;13.788;2023-04-15T12:04:00;2.25;;;2.05;;
74245;SDS011;62601;51.044;13.788;2023-04-15T12:06:23;2.50;;;2.30;;
74245;SDS011;62601;51.044;13.788;2023-04-15T12:08:50;2.03;;;1.83;;
74245;SDS011;62601;51.044;13.788;2023-04-15T12:11:10;2.45;;;2.25;;
74245;SDS011;62601;51.044;13.788;2023-04-15T12:13:31;2.55;;;2.35;;
74245;SDS011;62601;51.044;13.788;2023-04-15T12:15:54;2.63;;;2.15;;
74245;SDS011;62601;51.044;13.788;2023-04-15T12:18:18;3.97;;;2.80;;
74245;SDS011;62601;51.044;13.788;2023-04-15T12:20:42;3.47;;;2.15;;
74245;SDS011;62601;51.044;13.788;2023-04-15T12:23:07;4.03;;;2.63;;
74245;SDS011;62601;51.044;13.788;2023-04-15T12:25:33;4.95;;;4.05;;
74245;SDS011;62601;51.044;13.788;2023-04-15T12:27:55;2.65;;;2.30;;
74245;SDS011;62601;51.044;13.788;2023-04-15T12:30:16;2.30;;;2.10;;
74245;SDS011;62601;51.044;13.788;2023-04-15T12:32:38;2.28;;;2.08;;
74245;SDS011;62601;51.044;13.788;2023-04-15T12:34:59;1.80;;;1.70;;
74245;SDS011;62601;51.044;13.788;2023-04-15T12:37:20;2.10;;;2.00;;
74245;SDS011;62601;51.044;13.788;2023-04-15T12:39:43;2.13;;;1.70;;
74245;SDS011;62601;51.044;13.788;2023-04-15T12:42:03;3.45;;;1.95;;
74245;SDS011;62601;51.044;13.788;2023-04-15T12:44:25;2.75;;;2.28;;
74245;SDS011;62601;51.044;13.788;2023-04-15T12:46:46;2.83;;;2.63;;
74245;SDS011;62601;51.044;13.788;2023-04-15T12:49:06;2.10;;;1.90;;
74245;SDS011;62601;51.044;13.788;2023-04-15T12:51:28;1.92;;;1.83;;
74245;SDS011;62601;51.044;13.788;2023-04-15T12:53:49;2.45;;;2.25;;
74245;SDS011;62601;51.044;13.788;2023-04-15T12:56:11;1.92;;;1.80;;
74245;SDS011;62601;51.044;13.788;2023-04-15T12:58:32;2.28;;;2.08;;
74245;SDS011;62601;51.044;13.788;2023-04-15T13:00:52;2.10;;;1.60;;
74245;SDS011;62601;51.044;13.788;2023-04-15T13:03:12;3.30;;;1.98;;
74245;SDS011;62601;51.044;13.788;2023-04-15T13:05:33;2.42;;;2.22;;
74245;SDS011;62601;51.044;13.788;2023-04-15T13:07:55;2.13;;;2.03;;
74245;SDS011;62601;51.044;13.788;2023-04-15T13:10:15;2.15;;;1.90;;
74245;SDS011;62601;51.044;13.788;2023-04-15T13:12:37;2.58;;;2.15;;
74245;SDS011;62601;51.044;13.788;2023-04-15T13:14:57;4.35;;;2.70;;
74245;SDS011;62601;51.044;13.788;2023-04-15T13:17:17;2.20;;;2.00;;
74245;SDS011;62601;51.044;13.788;2023-04-15T13:19:38;2.72;;;1.80;;
74245;SDS011;62601;51.044;13.788;2023-04-15T13:21:58;2.03;;;1.92;;
74245;SDS011;62601;51.044;13.788;2023-04-15T13:24:19;2.95;;;2.58;;
74245;SDS011;62601;51.044;13.788;2023-04-15T13:26:39;3.00;;;2.75;;
74245;SDS011;62601;51.044;13.788;2023-04-15T13:29:01;3.20;;;2.90;;
74245;SDS011;62601;51.044;13.788;2023-04-15T13:31:21;2.50;;;2.30;;
74245;SDS011;62601;51.044;13.788;2023-04-15T13:33:42;2.97;;;2.67;;
74245;SDS011;62601;51.044;13.788;2023-04-15T13:36:02;2.60;;;2.40;;
74245;SDS011;62601;51.044;13.788;2023-04-15T13:38:23;2.58;;;2.38;;
74245;SDS011;62601;51.044;13.788;2023-04-15T13:40:44;3.33;;;2.90;;
74245;SDS011;62601;51.044;13.788;2023-04-15T13:43:06;2.70;;;2.50;;
74245;SDS011;62601;51.044;13.788;2023-04-15T13:45:27;3.40;;;2.22;;
74245;SDS011;62601;51.044;13.788;2023-04-15T13:47:49;2.30;;;2.10;;
74245;SDS011;62601;51.044;13.788;2023-04-15T13:50:10;2.10;;;1.98;;
74245;SDS011;62601;51.044;13.788;2023-04-15T13:52:32;2.70;;;2.50;;
74245;SDS011;62601;51.044;13.788;2023-04-15T13:54:52;4.65;;;4.30;;
74245;SDS011;62601;51.044;13.788;2023-04-15T13:57:13;3.40;;;3.10;;
74245;SDS011;62601;51.044;13.788;2023-04-15T13:59:34;3.25;;;2.90;;